PWSweather.com
Personal Weather Stations
Station Observations
COONRAPIDS
Minneapolis, MN 55433

Minneapolis, MN 55433

Lat: 45.187721, Lon: -93.36828

Elevation: 898

Station Type: Davis Vantage Pro 2

High Low Average
Temperature 73.8°F23.2°C 49.8°F9.9°C 60.8°F16.0°C
Dew Point 49.9°F9.9°C 34.1°F1.2°C 43.5°F6.4°C
Winds 4.6 mph 7.4 kmh Calm Calm Calm SCalm S
Wind Gusts 9.2 mph14.8 kmh -- 1.0 mph1.6 kmh
Humidity 89% 25% 57%
Pressure 29.93 in1013.5 mb 29.71 in1006.1 mb -
Precipitation 0.16 in4.1 mm - -
Hour Temp Dew Point Humidity Winds Wind Gusts Pressure Precip Precip Rate Daily Precip Total
12:00 AM 59.6°F15.3°C 49.8°F9.9°C 70% Calm Calm -- 29.77 in1008.1 mb - 0.01 in0.3 mm 0.01 in0.3 mm
12:10 AM 58.5°F14.7°C 49.9°F9.9°C 73% Calm Calm -- 29.75 in1007.5 mb - 0.02 in0.5 mm 0.02 in0.5 mm
12:20 AM 57.5°F14.2°C 49.7°F9.8°C 75% Calm Calm -- 29.75 in1007.5 mb - 0.02 in0.5 mm 0.02 in0.5 mm
12:30 AM 56.7°F13.7°C 49.2°F9.6°C 76% Calm Calm 1.2 mph1.9 kmh 29.74 in1007.1 mb - 0.02 in0.5 mm 0.02 in0.5 mm
12:40 AM 56.1°F13.4°C 49.0°F9.4°C 77% 1.2 mph NNE1.9 kmh NNE 2.3 mph3.7 kmh 29.74 in1007.1 mb - 0.02 in0.5 mm 0.02 in0.5 mm
12:50 AM 55.5°F13.1°C 48.7°F9.3°C 78% Calm Calm 2.3 mph3.7 kmh 29.74 in1007.1 mb - 0.01 in0.3 mm 0.02 in0.5 mm
01:00 AM 55.0°F12.8°C 48.6°F9.2°C 79% Calm Calm 3.5 mph5.6 kmh 29.75 in1007.5 mb - 0.01 in0.3 mm 0.02 in0.5 mm
01:10 AM 54.5°F12.5°C 48.1°F8.9°C 79% 1.2 mph NE1.9 kmh NE 3.5 mph5.6 kmh 29.75 in1007.5 mb - 0.00 in0.0 mm 0.02 in0.5 mm
01:20 AM 54.3°F12.4°C 47.9°F8.8°C 79% 1.2 mph NE1.9 kmh NE 4.6 mph7.4 kmh 29.73 in1006.8 mb - 0.00 in0.0 mm 0.02 in0.5 mm
01:30 AM 54.1°F12.3°C 47.7°F8.7°C 79% Calm Calm 1.2 mph1.9 kmh 29.72 in1006.4 mb - 0.00 in0.0 mm 0.02 in0.5 mm
01:40 AM 53.9°F12.2°C 47.5°F8.6°C 79% Calm Calm -- 29.72 in1006.4 mb - 0.00 in0.0 mm 0.02 in0.5 mm
01:50 AM 53.6°F12.0°C 47.9°F8.8°C 81% Calm Calm -- 29.73 in1006.8 mb - 0.00 in0.0 mm 0.02 in0.5 mm
02:00 AM 53.3°F11.8°C 47.9°F8.8°C 82% Calm Calm -- 29.73 in1006.8 mb - 0.00 in0.0 mm 0.02 in0.5 mm
02:10 AM 53.2°F11.8°C 48.2°F9.0°C 83% Calm Calm -- 29.75 in1007.5 mb - 0.00 in0.0 mm 0.02 in0.5 mm
02:20 AM 53.4°F11.9°C 48.7°F9.3°C 84% Calm Calm 1.2 mph1.9 kmh 29.81 in1009.5 mb - 0.01 in0.3 mm 0.03 in0.8 mm
02:30 AM 53.4°F11.9°C 49.0°F9.4°C 85% 1.2 mph NNE1.9 kmh NNE 1.2 mph1.9 kmh 29.81 in1009.5 mb - 0.03 in0.8 mm 0.05 in1.3 mm
02:40 AM 53.3°F11.8°C 48.9°F9.4°C 85% Calm Calm -- 29.81 in1009.5 mb - 0.06 in1.5 mm 0.08 in2.0 mm
02:50 AM 53.0°F11.7°C 48.9°F9.4°C 86% Calm Calm -- 29.81 in1009.5 mb - 0.07 in1.8 mm 0.09 in2.3 mm
03:00 AM 52.7°F11.5°C 48.6°F9.2°C 86% Calm Calm -- 29.80 in1009.1 mb - 0.08 in2.0 mm 0.10 in2.5 mm
03:10 AM 52.6°F11.4°C 48.5°F9.2°C 86% Calm Calm -- 29.79 in1008.8 mb - 0.09 in2.3 mm 0.11 in2.8 mm
03:20 AM 52.6°F11.4°C 48.8°F9.3°C 87% Calm Calm -- 29.77 in1008.1 mb - 0.09 in2.3 mm 0.12 in3.0 mm
03:30 AM 52.4°F11.3°C 48.6°F9.2°C 87% Calm Calm 1.2 mph1.9 kmh 29.75 in1007.5 mb - 0.07 in1.8 mm 0.12 in3.0 mm
03:40 AM 52.3°F11.3°C 48.5°F9.2°C 87% Calm Calm -- 29.80 in1009.1 mb - 0.06 in1.5 mm 0.13 in3.3 mm
03:50 AM 52.6°F11.4°C 49.1°F9.5°C 88% Calm Calm -- 29.82 in1009.8 mb - 0.05 in1.3 mm 0.13 in3.3 mm
04:00 AM 52.8°F11.6°C 49.3°F9.6°C 88% Calm Calm -- 29.82 in1009.8 mb - 0.04 in1.0 mm 0.14 in3.6 mm
04:10 AM 52.9°F11.6°C 49.4°F9.7°C 88% Calm Calm -- 29.81 in1009.5 mb - 0.04 in1.0 mm 0.15 in3.8 mm
04:20 AM 53.0°F11.7°C 49.5°F9.7°C 88% Calm Calm -- 29.77 in1008.1 mb - 0.03 in0.8 mm 0.15 in3.8 mm
04:30 AM 53.0°F11.7°C 49.5°F9.7°C 88% 1.2 mph NE1.9 kmh NE 1.2 mph1.9 kmh 29.73 in1006.8 mb - 0.04 in1.0 mm 0.16 in4.1 mm
04:40 AM 52.8°F11.6°C 49.6°F9.8°C 89% Calm Calm -- 29.75 in1007.5 mb - 0.03 in0.8 mm 0.16 in4.1 mm
04:50 AM 52.6°F11.4°C 49.1°F9.5°C 88% 1.2 mph NE1.9 kmh NE 3.5 mph5.6 kmh 29.73 in1006.8 mb - 0.03 in0.8 mm 0.16 in4.1 mm
05:00 AM 52.1°F11.2°C 48.6°F9.2°C 88% 1.2 mph NE1.9 kmh NE 3.5 mph5.6 kmh 29.71 in1006.1 mb - 0.02 in0.5 mm 0.16 in4.1 mm
05:10 AM 51.3°F10.7°C 47.9°F8.8°C 88% Calm Calm -- 29.74 in1007.1 mb - 0.01 in0.3 mm 0.16 in4.1 mm
05:20 AM 51.0°F10.6°C 47.6°F8.7°C 88% 1.2 mph NE1.9 kmh NE 2.3 mph3.7 kmh 29.73 in1006.8 mb - 0.01 in0.3 mm 0.16 in4.1 mm
05:30 AM 50.0°F10.0°C 46.6°F8.1°C 88% Calm Calm -- 29.75 in1007.5 mb - 0.00 in0.0 mm 0.16 in4.1 mm
05:40 AM 49.8°F9.9°C 46.4°F8.0°C 88% Calm Calm -- 29.79 in1008.8 mb - 0.00 in0.0 mm 0.16 in4.1 mm
05:50 AM 49.9°F9.9°C 46.5°F8.1°C 88% Calm Calm -- 29.80 in1009.1 mb - 0.00 in0.0 mm 0.16 in4.1 mm
06:00 AM 50.3°F10.2°C 46.9°F8.3°C 88% Calm Calm -- 29.80 in1009.1 mb - 0.00 in0.0 mm 0.16 in4.1 mm
06:10 AM 50.3°F10.2°C 46.9°F8.3°C 88% Calm Calm -- 29.81 in1009.5 mb - 0.00 in0.0 mm 0.16 in4.1 mm
06:20 AM 50.2°F10.1°C 46.8°F8.2°C 88% Calm Calm -- 29.81 in1009.5 mb - 0.00 in0.0 mm 0.16 in4.1 mm
06:30 AM 50.3°F10.2°C 46.9°F8.3°C 88% Calm Calm -- 29.81 in1009.5 mb - 0.00 in0.0 mm 0.16 in4.1 mm
06:40 AM 50.1°F10.1°C 46.4°F8.0°C 87% Calm Calm -- 29.81 in1009.5 mb - 0.00 in0.0 mm 0.16 in4.1 mm
06:50 AM 50.2°F10.1°C 46.5°F8.1°C 87% Calm Calm -- 29.82 in1009.8 mb - 0.00 in0.0 mm 0.16 in4.1 mm
07:00 AM 50.5°F10.3°C 46.7°F8.2°C 87% Calm Calm -- 29.82 in1009.8 mb - 0.00 in0.0 mm 0.16 in4.1 mm
07:10 AM 50.7°F10.4°C 46.7°F8.2°C 86% Calm Calm -- 29.82 in1009.8 mb - 0.00 in0.0 mm 0.16 in4.1 mm
07:20 AM 51.0°F10.6°C 46.6°F8.1°C 85% Calm Calm -- 29.82 in1009.8 mb - 0.00 in0.0 mm 0.16 in4.1 mm
07:30 AM 51.6°F10.9°C 46.6°F8.1°C 83% Calm Calm -- 29.82 in1009.8 mb - 0.00 in0.0 mm 0.16 in4.1 mm
07:40 AM 52.2°F11.2°C 46.5°F8.1°C 81% Calm Calm -- 29.82 in1009.8 mb - 0.00 in0.0 mm 0.16 in4.1 mm
07:50 AM 52.6°F11.4°C 46.3°F7.9°C 79% Calm Calm 1.2 mph1.9 kmh 29.82 in1009.8 mb - 0.00 in0.0 mm 0.16 in4.1 mm
08:00 AM 53.1°F11.7°C 46.1°F7.8°C 77% Calm Calm 2.3 mph3.7 kmh 29.83 in1010.2 mb - 0.00 in0.0 mm 0.16 in4.1 mm
08:10 AM 53.5°F11.9°C 46.1°F7.8°C 76% Calm Calm -- 29.83 in1010.2 mb - 0.00 in0.0 mm 0.16 in4.1 mm
08:20 AM 54.1°F12.3°C 46.0°F7.8°C 74% Calm Calm -- 29.83 in1010.2 mb - 0.00 in0.0 mm 0.16 in4.1 mm
08:30 AM 54.8°F12.7°C 45.9°F7.7°C 72% Calm Calm -- 29.83 in1010.2 mb - 0.00 in0.0 mm 0.16 in4.1 mm
08:40 AM 55.2°F12.9°C 45.2°F7.3°C 69% 1.2 mph NE1.9 kmh NE 2.3 mph3.7 kmh 29.83 in1010.2 mb - 0.00 in0.0 mm 0.16 in4.1 mm
08:50 AM 55.8°F13.2°C 45.8°F7.7°C 69% Calm Calm -- 29.83 in1010.2 mb - 0.00 in0.0 mm 0.16 in4.1 mm
09:00 AM 56.6°F13.7°C 46.2°F7.9°C 68% Calm Calm -- 29.84 in1010.5 mb - 0.00 in0.0 mm 0.16 in4.1 mm
09:10 AM 57.2°F14.0°C 45.9°F7.7°C 66% Calm Calm -- 29.84 in1010.5 mb - 0.00 in0.0 mm 0.16 in4.1 mm
09:20 AM 57.7°F14.3°C 46.0°F7.8°C 65% Calm Calm -- 29.84 in1010.5 mb - 0.00 in0.0 mm 0.16 in4.1 mm
09:30 AM 58.2°F14.6°C 45.2°F7.3°C 62% 1.2 mph ENE1.9 kmh ENE 3.5 mph5.6 kmh 29.83 in1010.2 mb - 0.00 in0.0 mm 0.16 in4.1 mm
09:40 AM 58.9°F14.9°C 45.9°F7.7°C 62% Calm Calm -- 29.84 in1010.5 mb - 0.00 in0.0 mm 0.16 in4.1 mm
09:50 AM 59.6°F15.3°C 45.2°F7.3°C 59% Calm Calm -- 29.84 in1010.5 mb - 0.00 in0.0 mm 0.16 in4.1 mm
10:00 AM 60.4°F15.8°C 45.5°F7.5°C 58% Calm Calm 1.2 mph1.9 kmh 29.84 in1010.5 mb - 0.00 in0.0 mm 0.16 in4.1 mm
10:10 AM 61.2°F16.2°C 46.3°F7.9°C 58% Calm Calm -- 29.84 in1010.5 mb - 0.00 in0.0 mm 0.16 in4.1 mm
10:20 AM 61.9°F16.6°C 45.5°F7.5°C 55% Calm Calm -- 29.84 in1010.5 mb - 0.00 in0.0 mm 0.16 in4.1 mm
10:30 AM 62.8°F17.1°C 45.4°F7.4°C 53% Calm Calm -- 29.84 in1010.5 mb - 0.00 in0.0 mm 0.16 in4.1 mm
10:40 AM 64.0°F17.8°C 46.0°F7.8°C 52% Calm Calm -- 29.84 in1010.5 mb - 0.00 in0.0 mm 0.16 in4.1 mm
10:50 AM 65.2°F18.4°C 46.6°F8.1°C 51% Calm Calm -- 29.84 in1010.5 mb - 0.00 in0.0 mm 0.16 in4.1 mm
11:00 AM 65.8°F18.8°C 45.6°F7.6°C 48% Calm Calm -- 29.84 in1010.5 mb - 0.00 in0.0 mm 0.16 in4.1 mm
11:10 AM 66.6°F19.2°C 45.2°F7.3°C 46% Calm Calm -- 29.84 in1010.5 mb - 0.00 in0.0 mm 0.16 in4.1 mm
11:20 AM 67.4°F19.7°C 46.4°F8.0°C 47% 1.2 mph NE1.9 kmh NE 2.3 mph3.7 kmh 29.84 in1010.5 mb - 0.00 in0.0 mm 0.16 in4.1 mm
11:30 AM 68.5°F20.3°C 45.7°F7.6°C 44% Calm Calm 1.2 mph1.9 kmh 29.84 in1010.5 mb - 0.00 in0.0 mm 0.16 in4.1 mm
11:40 AM 68.9°F20.5°C 47.3°F8.5°C 46% Calm Calm -- 29.84 in1010.5 mb - 0.00 in0.0 mm 0.16 in4.1 mm
11:50 AM 69.0°F20.6°C 46.8°F8.2°C 45% Calm Calm 1.2 mph1.9 kmh 29.84 in1010.5 mb - 0.00 in0.0 mm 0.16 in4.1 mm
12:00 PM 68.9°F20.5°C 45.5°F7.5°C 43% Calm Calm -- 29.83 in1010.2 mb - 0.00 in0.0 mm 0.16 in4.1 mm
12:10 PM 69.3°F20.7°C 44.0°F6.7°C 40% 3.5 mph WSW5.6 kmh WSW 6.9 mph11.1 kmh 29.83 in1010.2 mb - 0.00 in0.0 mm 0.16 in4.1 mm
12:20 PM 69.2°F20.7°C 46.4°F8.0°C 44% Calm Calm -- 29.83 in1010.2 mb - 0.00 in0.0 mm 0.16 in4.1 mm
12:30 PM 69.6°F20.9°C 47.3°F8.5°C 45% Calm Calm -- 29.83 in1010.2 mb - 0.00 in0.0 mm 0.16 in4.1 mm
12:40 PM 69.9°F21.1°C 46.4°F8.0°C 43% 3.5 mph NW5.6 kmh NW 9.2 mph14.8 kmh 29.82 in1009.8 mb - 0.00 in0.0 mm 0.16 in4.1 mm
12:50 PM 70.5°F21.4°C 46.9°F8.3°C 43% Calm Calm -- 29.82 in1009.8 mb - 0.00 in0.0 mm 0.16 in4.1 mm
01:00 PM 70.6°F21.4°C 46.4°F8.0°C 42% Calm Calm 3.5 mph5.6 kmh 29.82 in1009.8 mb - 0.00 in0.0 mm 0.16 in4.1 mm
01:10 PM 70.8°F21.6°C 48.4°F9.1°C 45% Calm Calm -- 29.82 in1009.8 mb - 0.00 in0.0 mm 0.16 in4.1 mm
01:20 PM 70.7°F21.5°C 48.9°F9.4°C 46% Calm Calm -- 29.82 in1009.8 mb - 0.00 in0.0 mm 0.16 in4.1 mm
01:30 PM 70.7°F21.5°C 48.3°F9.1°C 45% Calm Calm -- 29.82 in1009.8 mb - 0.00 in0.0 mm 0.16 in4.1 mm
01:40 PM 70.8°F21.6°C 47.8°F8.8°C 44% Calm Calm -- 29.81 in1009.5 mb - 0.00 in0.0 mm 0.16 in4.1 mm
01:50 PM 70.7°F21.5°C 48.9°F9.4°C 46% 1.2 mph NW1.9 kmh NW 1.2 mph1.9 kmh 29.81 in1009.5 mb - 0.00 in0.0 mm 0.16 in4.1 mm
02:00 PM 72.1°F22.3°C 48.4°F9.1°C 43% Calm Calm -- 29.81 in1009.5 mb - 0.00 in0.0 mm 0.16 in4.1 mm
02:10 PM 72.8°F22.7°C 45.7°F7.6°C 38% 1.2 mph NW1.9 kmh NW 3.5 mph5.6 kmh 29.81 in1009.5 mb - 0.00 in0.0 mm 0.16 in4.1 mm
02:20 PM 72.8°F22.7°C 40.4°F4.7°C 31% 2.3 mph WNW3.7 kmh WNW 2.3 mph3.7 kmh 29.82 in1009.8 mb - 0.00 in0.0 mm 0.16 in4.1 mm
02:30 PM 72.6°F22.6°C 39.4°F4.1°C 30% 4.6 mph NW7.4 kmh NW 9.2 mph14.8 kmh 29.82 in1009.8 mb - 0.00 in0.0 mm 0.16 in4.1 mm
02:40 PM 72.2°F22.3°C 42.3°F5.7°C 34% 1.2 mph NNE1.9 kmh NNE 2.3 mph3.7 kmh 29.82 in1009.8 mb - 0.00 in0.0 mm 0.16 in4.1 mm
02:50 PM 72.2°F22.3°C 42.3°F5.7°C 34% Calm Calm -- 29.82 in1009.8 mb - 0.00 in0.0 mm 0.16 in4.1 mm
03:00 PM 72.6°F22.6°C 41.8°F5.4°C 33% Calm Calm -- 29.82 in1009.8 mb - 0.00 in0.0 mm 0.16 in4.1 mm
03:10 PM 72.5°F22.5°C 40.9°F4.9°C 32% 1.2 mph NW1.9 kmh NW 3.5 mph5.6 kmh 29.81 in1009.5 mb - 0.00 in0.0 mm 0.16 in4.1 mm
03:20 PM 72.3°F22.4°C 40.8°F4.9°C 32% Calm Calm -- 29.81 in1009.5 mb - 0.00 in0.0 mm 0.16 in4.1 mm
03:30 PM 72.4°F22.4°C 39.2°F4.0°C 30% Calm Calm 8.1 mph13.0 kmh 29.81 in1009.5 mb - 0.00 in0.0 mm 0.16 in4.1 mm
03:40 PM 72.1°F22.3°C 39.8°F4.3°C 31% 2.3 mph N3.7 kmh N 3.5 mph5.6 kmh 29.82 in1009.8 mb - 0.00 in0.0 mm 0.16 in4.1 mm
03:50 PM 71.7°F22.1°C 39.5°F4.2°C 31% 1.2 mph NNW1.9 kmh NNW -- 29.82 in1009.8 mb - 0.00 in0.0 mm 0.16 in4.1 mm
04:00 PM 71.7°F22.1°C 39.4°F4.1°C 31% 2.3 mph NNE3.7 kmh NNE 3.5 mph5.6 kmh 29.82 in1009.8 mb - 0.00 in0.0 mm 0.16 in4.1 mm
04:10 PM 71.8°F22.1°C 39.5°F4.2°C 31% 3.5 mph N5.6 kmh N 4.6 mph7.4 kmh 29.82 in1009.8 mb - 0.00 in0.0 mm 0.16 in4.1 mm
04:20 PM 72.1°F22.3°C 39.8°F4.3°C 31% 1.2 mph NE1.9 kmh NE 2.3 mph3.7 kmh 29.82 in1009.8 mb - 0.00 in0.0 mm 0.16 in4.1 mm
04:30 PM 72.0°F22.2°C 39.7°F4.3°C 31% 1.2 mph N1.9 kmh N 3.5 mph5.6 kmh 29.82 in1009.8 mb - 0.00 in0.0 mm 0.16 in4.1 mm
04:40 PM 71.8°F22.1°C 38.7°F3.7°C 30% Calm Calm 3.5 mph5.6 kmh 29.82 in1009.8 mb - 0.00 in0.0 mm 0.16 in4.1 mm
04:50 PM 72.2°F22.3°C 38.1°F3.4°C 29% Calm Calm 1.2 mph1.9 kmh 29.82 in1009.8 mb - 0.00 in0.0 mm 0.16 in4.1 mm
05:00 PM 73.1°F22.8°C 38.9°F3.8°C 29% Calm Calm -- 29.82 in1009.8 mb - 0.00 in0.0 mm 0.16 in4.1 mm
05:10 PM 73.8°F23.2°C 36.8°F2.7°C 26% 2.3 mph NW3.7 kmh NW 3.5 mph5.6 kmh 29.82 in1009.8 mb - 0.00 in0.0 mm 0.16 in4.1 mm
05:20 PM 73.2°F22.9°C 37.2°F2.9°C 27% Calm Calm 5.8 mph9.3 kmh 29.82 in1009.8 mb - 0.00 in0.0 mm 0.16 in4.1 mm
05:30 PM 72.9°F22.7°C 35.0°F1.7°C 25% 1.2 mph NNW1.9 kmh NNW 4.6 mph7.4 kmh 29.82 in1009.8 mb - 0.00 in0.0 mm 0.16 in4.1 mm
05:40 PM 72.5°F22.5°C 35.6°F2.0°C 26% 2.3 mph NE3.7 kmh NE 3.5 mph5.6 kmh 29.82 in1009.8 mb - 0.00 in0.0 mm 0.16 in4.1 mm
05:50 PM 71.8°F22.1°C 34.1°F1.2°C 25% 1.2 mph NE1.9 kmh NE 3.5 mph5.6 kmh 29.82 in1009.8 mb - 0.00 in0.0 mm 0.16 in4.1 mm
06:00 PM 70.8°F21.6°C 34.2°F1.2°C 26% 1.2 mph N1.9 kmh N 2.3 mph3.7 kmh 29.83 in1010.2 mb - 0.00 in0.0 mm 0.16 in4.1 mm
06:10 PM 70.1°F21.2°C 34.5°F1.4°C 27% 2.3 mph NW3.7 kmh NW 3.5 mph5.6 kmh 29.83 in1010.2 mb - 0.00 in0.0 mm 0.16 in4.1 mm
06:20 PM 69.6°F20.9°C 35.9°F2.2°C 29% 2.3 mph NE3.7 kmh NE 3.5 mph5.6 kmh 29.83 in1010.2 mb - 0.00 in0.0 mm 0.16 in4.1 mm
06:30 PM 69.1°F20.6°C 36.4°F2.4°C 30% 1.2 mph ENE1.9 kmh ENE 3.5 mph5.6 kmh 29.83 in1010.2 mb - 0.00 in0.0 mm 0.16 in4.1 mm
06:40 PM 68.5°F20.3°C 39.8°F4.3°C 35% Calm Calm -- 29.84 in1010.5 mb - 0.00 in0.0 mm 0.16 in4.1 mm
06:50 PM 67.7°F19.8°C 39.8°F4.3°C 36% 1.2 mph N1.9 kmh N 3.5 mph5.6 kmh 29.84 in1010.5 mb - 0.00 in0.0 mm 0.16 in4.1 mm
07:00 PM 66.8°F19.3°C 37.5°F3.1°C 34% 1.2 mph NNE1.9 kmh NNE 3.5 mph5.6 kmh 29.85 in1010.8 mb - 0.00 in0.0 mm 0.16 in4.1 mm
07:10 PM 66.0°F18.9°C 36.0°F2.2°C 33% 2.3 mph NNE3.7 kmh NNE 3.5 mph5.6 kmh 29.85 in1010.8 mb - 0.00 in0.0 mm 0.16 in4.1 mm
07:20 PM 65.3°F18.5°C 35.5°F1.9°C 33% Calm Calm -- 29.85 in1010.8 mb - 0.00 in0.0 mm 0.16 in4.1 mm
07:30 PM 64.7°F18.2°C 36.4°F2.4°C 35% Calm Calm -- 29.86 in1011.2 mb - 0.00 in0.0 mm 0.16 in4.1 mm
07:40 PM 64.1°F17.8°C 35.1°F1.7°C 34% Calm Calm 3.5 mph5.6 kmh 29.86 in1011.2 mb - 0.00 in0.0 mm 0.16 in4.1 mm
07:50 PM 63.7°F17.6°C 35.5°F1.9°C 35% 1.2 mph N1.9 kmh N 1.2 mph1.9 kmh 29.86 in1011.2 mb - 0.00 in0.0 mm 0.16 in4.1 mm
08:00 PM 63.1°F17.3°C 35.7°F2.1°C 36% Calm Calm -- 29.86 in1011.2 mb - 0.00 in0.0 mm 0.16 in4.1 mm
08:10 PM 62.5°F16.9°C 35.9°F2.2°C 37% Calm Calm -- 29.86 in1011.2 mb - 0.00 in0.0 mm 0.16 in4.1 mm
08:20 PM 61.8°F16.6°C 35.3°F1.8°C 37% Calm Calm -- 29.87 in1011.5 mb - 0.00 in0.0 mm 0.16 in4.1 mm
08:30 PM 61.2°F16.2°C 35.4°F1.9°C 38% Calm Calm -- 29.87 in1011.5 mb - 0.00 in0.0 mm 0.16 in4.1 mm
08:40 PM 60.9°F16.1°C 36.4°F2.4°C 40% Calm Calm -- 29.88 in1011.9 mb - 0.00 in0.0 mm 0.16 in4.1 mm
08:50 PM 60.5°F15.8°C 36.0°F2.2°C 40% Calm Calm 2.3 mph3.7 kmh 29.88 in1011.9 mb - 0.00 in0.0 mm 0.16 in4.1 mm
09:00 PM 60.1°F15.6°C 36.3°F2.4°C 41% Calm Calm -- 29.88 in1011.9 mb - 0.00 in0.0 mm 0.16 in4.1 mm
09:10 PM 59.7°F15.4°C 36.6°F2.6°C 42% Calm Calm -- 29.89 in1012.2 mb - 0.00 in0.0 mm 0.16 in4.1 mm
09:20 PM 59.2°F15.1°C 36.7°F2.6°C 43% Calm Calm -- 29.89 in1012.2 mb - 0.00 in0.0 mm 0.16 in4.1 mm
09:30 PM 58.6°F14.8°C 36.7°F2.6°C 44% Calm Calm -- 29.89 in1012.2 mb - 0.00 in0.0 mm 0.16 in4.1 mm
09:40 PM 58.2°F14.6°C 36.4°F2.4°C 44% Calm Calm 1.2 mph1.9 kmh 29.90 in1012.5 mb - 0.00 in0.0 mm 0.16 in4.1 mm
09:50 PM 58.0°F14.4°C 36.7°F2.6°C 45% Calm Calm -- 29.90 in1012.5 mb - 0.00 in0.0 mm 0.16 in4.1 mm
10:00 PM 57.8°F14.3°C 37.1°F2.8°C 46% Calm Calm -- 29.91 in1012.9 mb - 0.00 in0.0 mm 0.16 in4.1 mm
10:10 PM 57.5°F14.2°C 37.4°F3.0°C 47% Calm Calm -- 29.91 in1012.9 mb - 0.00 in0.0 mm 0.16 in4.1 mm
10:20 PM 57.0°F13.9°C 37.5°F3.1°C 48% Calm Calm -- 29.91 in1012.9 mb - 0.00 in0.0 mm 0.16 in4.1 mm
10:30 PM 56.5°F13.6°C 37.5°F3.1°C 49% Calm Calm -- 29.91 in1012.9 mb - 0.00 in0.0 mm 0.16 in4.1 mm
10:40 PM 55.9°F13.3°C 38.0°F3.3°C 51% Calm Calm -- 29.92 in1013.2 mb - 0.00 in0.0 mm 0.16 in4.1 mm
10:50 PM 54.9°F12.7°C 38.1°F3.4°C 53% Calm Calm -- 29.92 in1013.2 mb - 0.00 in0.0 mm 0.16 in4.1 mm
11:00 PM 54.1°F12.3°C 38.2°F3.4°C 55% Calm Calm -- 29.92 in1013.2 mb - 0.00 in0.0 mm 0.97 in24.6 mm
11:10 PM 53.5°F11.9°C 38.7°F3.7°C 57% Calm Calm -- 29.92 in1013.2 mb - 0.00 in0.0 mm 0.97 in24.6 mm
11:20 PM 53.0°F11.7°C 39.5°F4.2°C 60% Calm Calm -- 29.93 in1013.5 mb - 0.00 in0.0 mm 0.97 in24.6 mm
11:30 PM 52.2°F11.2°C 38.7°F3.7°C 60% Calm Calm -- 29.92 in1013.2 mb - 0.00 in0.0 mm 0.97 in24.6 mm
11:40 PM 51.4°F10.8°C 39.2°F4.0°C 63% Calm Calm -- 29.92 in1013.2 mb - 0.00 in0.0 mm 0.97 in24.6 mm
11:50 PM 51.0°F10.6°C 39.6°F4.2°C 65% Calm Calm -- 29.92 in1013.2 mb - 0.00 in0.0 mm 0.97 in24.6 mm